Gure Fatima — EAWO — position and weather

sailwx.info

Track history (hours):
 
Tides and Currents Weather Stations Pressure Air Temp Water Temp Dewpoint Dewpoint Depression Visibility Wind Speed Wind Dir Waves Ship Positions

Gure Fatima

Last reported at 2016-Apr-22 04:14 UTC. Time now 2016-May-01 19:20 UTC.
Position N 43°31' W 004°56'.
Warning: this ship's position is 9 days out of date.

Length 28 m; draft 3.2 m.

Type: Fishing. MMSI: 224081840.

Date/timePositionNaut miles runAvg speedWind from/ knotsBaromVisibWave heightAir tempDewpointWater temp
2016-Apr-22 04:14N 43°31' W 004°56'7 8.8
2016-Apr-22 03:28N 43°32' W 005°06'9 8.8
2016-Apr-22 02:29N 43°33' W 005°17'9 8.8
2016-Apr-22 01:30N 43°35' W 005°29'8 8.6
2016-Apr-22 00:33N 43°34' W 005°40'1 1.0
2016-Apr-21 23:29N 43°33' W 005°42'0 0.0
2016-Apr-21 22:33N 43°33' W 005°42'0 0.0
2016-Apr-21 21:31N 43°33' W 005°42'0 0.0
2016-Apr-21 20:32N 43°33' W 005°42'0 0.0
2016-Apr-21 16:33N 43°33' W 005°42'0 0.1
2016-Apr-21 15:33N 43°33' W 005°42'2 1.7
2016-Apr-21 14:33N 43°35' W 005°40'5 5.0
2016-Apr-21 13:31N 43°39' W 005°37'4 4.3
2016-Apr-21 12:33N 43°40' W 005°43'1 1.2
2016-Apr-21 11:33N 43°40' W 005°44'0 0.2
2016-Apr-21 10:32N 43°40' W 005°44'1 1.1
2016-Apr-21 09:32N 43°40' W 005°46'8 7.8
2016-Apr-21 08:33N 43°40' W 005°56'4 3.6
2016-Apr-21 07:33N 43°40' W 006°01'1 1.4
2016-Apr-21 06:31N 43°40' W 005°59'1 1.4
2016-Apr-21 05:31N 43°41' W 006°01'6 5.6
2016-Apr-21 04:27N 43°41' W 005°52'7 8.0
2016-Apr-21 03:33N 43°37' W 005°44'4 4.2
2016-Apr-21 02:33N 43°33' W 005°42'0 0.0
2016-Apr-21 01:33N 43°33' W 005°42'0 0.0
2016-Apr-21 00:33N 43°33' W 005°42'0 0.0
2016-Apr-20 23:33N 43°33' W 005°42'0 0.0
2016-Apr-20 22:33N 43°33' W 005°42'0 0.0
2016-Apr-20 21:33N 43°33' W 005°42'0 0.0
2016-Apr-20 19:16N 43°33' W 005°42'0 0.0
2016-Apr-20 18:33N 43°33' W 005°42'0 0.1
2016-Apr-20 17:29N 43°33' W 005°42'3 3.3
2016-Apr-20 16:30N 43°34' W 005°37'8 8.6
2016-Apr-20 15:32N 43°34' W 005°26'20 6.3
2016-Apr-20 12:20N 43°31' W 004°58'0 0.6
2016-Apr-20 11:33N 43°31' W 004°58'2 0.9
2016-Apr-20 09:16N 43°31' W 005°01'3 1.5
2016-Apr-20 07:21N 43°31' W 005°05'3 1.6
2016-Apr-20 05:24N 43°31' W 005°09'1 0.9
2016-Apr-20 04:17N 43°31' W 005°08'  
Track history (hours):
 
Tides and Currents Weather Stations Pressure Air Temp Water Temp Dewpoint Dewpoint Depression Visibility Wind Speed Wind Dir Waves Ship Positions

Gure Fatima

Last reported at 2016-Apr-22 04:14 UTC. Time now 2016-May-01 19:20 UTC.
Position N 43°31' W 004°56'.
Warning: this ship's position is 9 days out of date.

Length 28 m; draft 3.2 m.

Type: Fishing. MMSI: 224081840.

Date/timePositionNaut miles runAvg speedWind from/ knotsBaromVisibWave heightAir tempDewpointWater temp
2016-Apr-22 04:14N 43°31' W 004°56'7 8.8
2016-Apr-22 03:28N 43°32' W 005°06'9 8.8
2016-Apr-22 02:29N 43°33' W 005°17'9 8.8
2016-Apr-22 01:30N 43°35' W 005°29'8 8.6
2016-Apr-22 00:33N 43°34' W 005°40'1 1.0
2016-Apr-21 23:29N 43°33' W 005°42'0 0.0
2016-Apr-21 22:33N 43°33' W 005°42'0 0.0
2016-Apr-21 21:31N 43°33' W 005°42'0 0.0
2016-Apr-21 20:32N 43°33' W 005°42'0 0.0
2016-Apr-21 16:33N 43°33' W 005°42'0 0.1
2016-Apr-21 15:33N 43°33' W 005°42'2 1.7
2016-Apr-21 14:33N 43°35' W 005°40'5 5.0
2016-Apr-21 13:31N 43°39' W 005°37'4 4.3
2016-Apr-21 12:33N 43°40' W 005°43'1 1.2
2016-Apr-21 11:33N 43°40' W 005°44'0 0.2
2016-Apr-21 10:32N 43°40' W 005°44'1 1.1
2016-Apr-21 09:32N 43°40' W 005°46'8 7.8
2016-Apr-21 08:33N 43°40' W 005°56'4 3.6
2016-Apr-21 07:33N 43°40' W 006°01'1 1.4
2016-Apr-21 06:31N 43°40' W 005°59'1 1.4
2016-Apr-21 05:31N 43°41' W 006°01'6 5.6
2016-Apr-21 04:27N 43°41' W 005°52'7 8.0
2016-Apr-21 03:33N 43°37' W 005°44'4 4.2
2016-Apr-21 02:33N 43°33' W 005°42'0 0.0
2016-Apr-21 01:33N 43°33' W 005°42'0 0.0
2016-Apr-21 00:33N 43°33' W 005°42'0 0.0
2016-Apr-20 23:33N 43°33' W 005°42'0 0.0
2016-Apr-20 22:33N 43°33' W 005°42'0 0.0
2016-Apr-20 21:33N 43°33' W 005°42'0 0.0
2016-Apr-20 19:16N 43°33' W 005°42'0 0.0
2016-Apr-20 18:33N 43°33' W 005°42'0 0.1
2016-Apr-20 17:29N 43°33' W 005°42'3 3.3
2016-Apr-20 16:30N 43°34' W 005°37'8 8.6
2016-Apr-20 15:32N 43°34' W 005°26'20 6.3
2016-Apr-20 12:20N 43°31' W 004°58'0 0.6
2016-Apr-20 11:33N 43°31' W 004°58'2 0.9
2016-Apr-20 09:16N 43°31' W 005°01'3 1.5
2016-Apr-20 07:21N 43°31' W 005°05'3 1.6
2016-Apr-20 05:24N 43°31' W 005°09'1 0.9
2016-Apr-20 04:17N 43°31' W 005°08'  

Dump ship's entire track history